sensor_id;sensor_type;location;lat;lon;timestamp;P1;durP1;ratioP1;P2;durP2;ratioP2
29776;SDS011;16677;52.224;7.484;2022-10-15T00:00:42;98.40;;;46.90;;
29776;SDS011;16677;52.224;7.484;2022-10-15T00:03:09;98.03;;;46.10;;
29776;SDS011;16677;52.224;7.484;2022-10-15T00:05:37;96.17;;;46.83;;
29776;SDS011;16677;52.224;7.484;2022-10-15T00:08:05;93.67;;;47.03;;
29776;SDS011;16677;52.224;7.484;2022-10-15T00:10:34;94.37;;;47.63;;
29776;SDS011;16677;52.224;7.484;2022-10-15T00:13:02;106.57;;;47.60;;
29776;SDS011;16677;52.224;7.484;2022-10-15T00:15:30;101.30;;;48.17;;
29776;SDS011;16677;52.224;7.484;2022-10-15T00:17:58;102.17;;;49.60;;
29776;SDS011;16677;52.224;7.484;2022-10-15T00:20:24;99.37;;;49.83;;
29776;SDS011;16677;52.224;7.484;2022-10-15T00:22:51;102.73;;;48.47;;
29776;SDS011;16677;52.224;7.484;2022-10-15T00:25:18;99.23;;;48.17;;
29776;SDS011;16677;52.224;7.484;2022-10-15T00:27:45;104.40;;;48.17;;
29776;SDS011;16677;52.224;7.484;2022-10-15T00:30:12;103.90;;;49.27;;
29776;SDS011;16677;52.224;7.484;2022-10-15T00:32:39;98.57;;;48.73;;
29776;SDS011;16677;52.224;7.484;2022-10-15T00:35:06;100.10;;;48.97;;
29776;SDS011;16677;52.224;7.484;2022-10-15T00:37:34;101.40;;;49.67;;
29776;SDS011;16677;52.224;7.484;2022-10-15T00:40:01;95.70;;;47.77;;
29776;SDS011;16677;52.224;7.484;2022-10-15T00:42:29;99.83;;;48.07;;
29776;SDS011;16677;52.224;7.484;2022-10-15T00:44:56;99.20;;;47.50;;
29776;SDS011;16677;52.224;7.484;2022-10-15T00:50:06;91.77;;;47.30;;
29776;SDS011;16677;52.224;7.484;2022-10-15T00:55:33;101.57;;;49.20;;
29776;SDS011;16677;52.224;7.484;2022-10-15T00:58:09;101.17;;;46.83;;
29776;SDS011;16677;52.224;7.484;2022-10-15T01:00:41;94.23;;;47.67;;
29776;SDS011;16677;52.224;7.484;2022-10-15T01:03:09;95.53;;;48.50;;
29776;SDS011;16677;52.224;7.484;2022-10-15T01:05:38;100.30;;;47.60;;
29776;SDS011;16677;52.224;7.484;2022-10-15T01:08:05;109.43;;;49.87;;
29776;SDS011;16677;52.224;7.484;2022-10-15T01:10:36;106.13;;;50.73;;
29776;SDS011;16677;52.224;7.484;2022-10-15T01:16:14;107.67;;;50.50;;
29776;SDS011;16677;52.224;7.484;2022-10-15T01:18:49;97.67;;;49.13;;
29776;SDS011;16677;52.224;7.484;2022-10-15T01:35:02;89.87;;;45.33;;
29776;SDS011;16677;52.224;7.484;2022-10-15T01:37:54;89.80;;;46.43;;
29776;SDS011;16677;52.224;7.484;2022-10-15T01:40:38;94.10;;;45.80;;
29776;SDS011;16677;52.224;7.484;2022-10-15T01:43:32;84.03;;;43.93;;
29776;SDS011;16677;52.224;7.484;2022-10-15T01:46:05;97.87;;;46.50;;
29776;SDS011;16677;52.224;7.484;2022-10-15T01:48:36;117.15;;;59.08;;
29776;SDS011;16677;52.224;7.484;2022-10-15T01:51:05;98.67;;;49.77;;
29776;SDS011;16677;52.224;7.484;2022-10-15T01:53:36;99.97;;;47.07;;
29776;SDS011;16677;52.224;7.484;2022-10-15T01:56:08;94.73;;;46.63;;
29776;SDS011;16677;52.224;7.484;2022-10-15T01:58:38;101.60;;;48.30;;
29776;SDS011;16677;52.224;7.484;2022-10-15T02:01:08;105.80;;;47.67;;
29776;SDS011;16677;52.224;7.484;2022-10-15T02:03:45;98.27;;;48.20;;
29776;SDS011;16677;52.224;7.484;2022-10-15T02:06:18;109.40;;;47.63;;
29776;SDS011;16677;52.224;7.484;2022-10-15T02:09:41;100.17;;;46.90;;
29776;SDS011;16677;52.224;7.484;2022-10-15T02:14:53;97.77;;;47.60;;
29776;SDS011;16677;52.224;7.484;2022-10-15T02:17:33;100.27;;;49.30;;
29776;SDS011;16677;52.224;7.484;2022-10-15T02:20:14;98.30;;;46.27;;
29776;SDS011;16677;52.224;7.484;2022-10-15T02:25:25;105.80;;;47.60;;
29776;SDS011;16677;52.224;7.484;2022-10-15T02:27:54;104.87;;;46.77;;
29776;SDS011;16677;52.224;7.484;2022-10-15T02:30:24;103.07;;;48.03;;
29776;SDS011;16677;52.224;7.484;2022-10-15T02:32:53;106.73;;;47.83;;
29776;SDS011;16677;52.224;7.484;2022-10-15T02:35:23;103.83;;;47.67;;
29776;SDS011;16677;52.224;7.484;2022-10-15T02:37:52;107.27;;;48.23;;
29776;SDS011;16677;52.224;7.484;2022-10-15T02:40:21;113.40;;;48.23;;
29776;SDS011;16677;52.224;7.484;2022-10-15T02:42:52;121.43;;;51.03;;
29776;SDS011;16677;52.224;7.484;2022-10-15T02:45:20;115.03;;;51.20;;
29776;SDS011;16677;52.224;7.484;2022-10-15T02:47:47;119.37;;;50.07;;
29776;SDS011;16677;52.224;7.484;2022-10-15T02:50:14;116.03;;;50.07;;
29776;SDS011;16677;52.224;7.484;2022-10-15T02:52:41;125.87;;;52.40;;
29776;SDS011;16677;52.224;7.484;2022-10-15T02:55:08;119.17;;;50.00;;
29776;SDS011;16677;52.224;7.484;2022-10-15T02:57:35;151.47;;;51.30;;
29776;SDS011;16677;52.224;7.484;2022-10-15T03:00:02;137.10;;;52.00;;
29776;SDS011;16677;52.224;7.484;2022-10-15T03:02:30;131.40;;;47.90;;
29776;SDS011;16677;52.224;7.484;2022-10-15T03:04:57;173.40;;;51.43;;
29776;SDS011;16677;52.224;7.484;2022-10-15T03:07:24;148.57;;;48.87;;
29776;SDS011;16677;52.224;7.484;2022-10-15T03:09:51;174.03;;;50.93;;
29776;SDS011;16677;52.224;7.484;2022-10-15T03:12:18;252.70;;;53.23;;
29776;SDS011;16677;52.224;7.484;2022-10-15T03:14:48;330.07;;;56.83;;
29776;SDS011;16677;52.224;7.484;2022-10-15T03:17:15;192.03;;;51.47;;
29776;SDS011;16677;52.224;7.484;2022-10-15T03:19:42;123.57;;;48.13;;
29776;SDS011;16677;52.224;7.484;2022-10-15T03:22:09;212.97;;;53.20;;
29776;SDS011;16677;52.224;7.484;2022-10-15T03:24:36;212.27;;;51.10;;
29776;SDS011;16677;52.224;7.484;2022-10-15T03:27:03;227.73;;;67.90;;
29776;SDS011;16677;52.224;7.484;2022-10-15T03:29:30;119.83;;;48.63;;
29776;SDS011;16677;52.224;7.484;2022-10-15T03:31:57;147.40;;;49.03;;
29776;SDS011;16677;52.224;7.484;2022-10-15T03:34:24;163.53;;;47.80;;
29776;SDS011;16677;52.224;7.484;2022-10-15T03:36:51;147.37;;;47.93;;
29776;SDS011;16677;52.224;7.484;2022-10-15T03:39:18;164.00;;;49.97;;
29776;SDS011;16677;52.224;7.484;2022-10-15T03:41:45;182.40;;;48.53;;
29776;SDS011;16677;52.224;7.484;2022-10-15T03:44:12;240.93;;;52.77;;
29776;SDS011;16677;52.224;7.484;2022-10-15T03:46:38;200.83;;;50.87;;
29776;SDS011;16677;52.224;7.484;2022-10-15T03:49:05;218.87;;;51.93;;
29776;SDS011;16677;52.224;7.484;2022-10-15T03:51:32;127.67;;;47.30;;
29776;SDS011;16677;52.224;7.484;2022-10-15T03:53:59;232.43;;;52.40;;
29776;SDS011;16677;52.224;7.484;2022-10-15T03:56:26;206.50;;;51.30;;
29776;SDS011;16677;52.224;7.484;2022-10-15T03:58:53;176.60;;;49.33;;
29776;SDS011;16677;52.224;7.484;2022-10-15T04:01:19;146.33;;;47.60;;
29776;SDS011;16677;52.224;7.484;2022-10-15T04:03:46;108.03;;;46.17;;
29776;SDS011;16677;52.224;7.484;2022-10-15T04:06:18;108.37;;;45.30;;
29776;SDS011;16677;52.224;7.484;2022-10-15T04:08:45;109.67;;;45.37;;
29776;SDS011;16677;52.224;7.484;2022-10-15T04:11:12;146.50;;;48.37;;
29776;SDS011;16677;52.224;7.484;2022-10-15T04:13:39;178.40;;;48.53;;
29776;SDS011;16677;52.224;7.484;2022-10-15T04:16:06;104.73;;;43.87;;
29776;SDS011;16677;52.224;7.484;2022-10-15T04:18:33;245.40;;;51.07;;
29776;SDS011;16677;52.224;7.484;2022-10-15T04:21:00;177.47;;;49.20;;
29776;SDS011;16677;52.224;7.484;2022-10-15T04:23:27;109.37;;;43.90;;
29776;SDS011;16677;52.224;7.484;2022-10-15T04:25:57;138.60;;;44.67;;
29776;SDS011;16677;52.224;7.484;2022-10-15T04:28:25;131.93;;;45.73;;
29776;SDS011;16677;52.224;7.484;2022-10-15T04:30:59;118.47;;;43.70;;
29776;SDS011;16677;52.224;7.484;2022-10-15T04:33:26;107.00;;;42.27;;
29776;SDS011;16677;52.224;7.484;2022-10-15T04:36:00;108.80;;;43.77;;
29776;SDS011;16677;52.224;7.484;2022-10-15T04:38:29;85.47;;;40.03;;
29776;SDS011;16677;52.224;7.484;2022-10-15T04:41:03;108.13;;;42.73;;
29776;SDS011;16677;52.224;7.484;2022-10-15T04:43:32;102.33;;;43.87;;
29776;SDS011;16677;52.224;7.484;2022-10-15T04:45:59;91.40;;;42.43;;
29776;SDS011;16677;52.224;7.484;2022-10-15T04:48:28;95.37;;;42.97;;
29776;SDS011;16677;52.224;7.484;2022-10-15T04:51:09;95.57;;;41.73;;
29776;SDS011;16677;52.224;7.484;2022-10-15T04:53:38;101.97;;;43.80;;
29776;SDS011;16677;52.224;7.484;2022-10-15T04:56:06;93.20;;;43.90;;
29776;SDS011;16677;52.224;7.484;2022-10-15T04:58:35;100.07;;;43.30;;
29776;SDS011;16677;52.224;7.484;2022-10-15T05:01:03;124.13;;;45.97;;
29776;SDS011;16677;52.224;7.484;2022-10-15T05:03:32;111.93;;;44.77;;
29776;SDS011;16677;52.224;7.484;2022-10-15T05:06:09;94.10;;;42.30;;
29776;SDS011;16677;52.224;7.484;2022-10-15T05:08:38;92.30;;;44.03;;
29776;SDS011;16677;52.224;7.484;2022-10-15T05:11:17;97.53;;;42.93;;
29776;SDS011;16677;52.224;7.484;2022-10-15T05:13:46;100.17;;;42.83;;
29776;SDS011;16677;52.224;7.484;2022-10-15T05:18:46;127.57;;;47.57;;
29776;SDS011;16677;52.224;7.484;2022-10-15T05:21:14;122.53;;;43.57;;
29776;SDS011;16677;52.224;7.484;2022-10-15T05:23:42;95.23;;;43.17;;
29776;SDS011;16677;52.224;7.484;2022-10-15T05:26:10;90.27;;;43.43;;
29776;SDS011;16677;52.224;7.484;2022-10-15T05:28:40;92.00;;;42.80;;
29776;SDS011;16677;52.224;7.484;2022-10-15T05:33:58;85.93;;;41.37;;
29776;SDS011;16677;52.224;7.484;2022-10-15T05:36:26;77.90;;;39.43;;
29776;SDS011;16677;52.224;7.484;2022-10-15T05:38:55;75.83;;;41.07;;
29776;SDS011;16677;52.224;7.484;2022-10-15T05:41:27;84.63;;;42.37;;
29776;SDS011;16677;52.224;7.484;2022-10-15T05:43:56;72.27;;;39.63;;
29776;SDS011;16677;52.224;7.484;2022-10-15T05:46:24;77.00;;;40.50;;
29776;SDS011;16677;52.224;7.484;2022-10-15T05:48:52;95.77;;;42.30;;
29776;SDS011;16677;52.224;7.484;2022-10-15T05:51:23;79.27;;;39.93;;
29776;SDS011;16677;52.224;7.484;2022-10-15T05:53:52;75.57;;;39.83;;
29776;SDS011;16677;52.224;7.484;2022-10-15T05:56:20;74.10;;;41.23;;
29776;SDS011;16677;52.224;7.484;2022-10-15T05:58:48;74.63;;;40.80;;
29776;SDS011;16677;52.224;7.484;2022-10-15T06:01:15;79.47;;;40.57;;
29776;SDS011;16677;52.224;7.484;2022-10-15T06:03:42;78.17;;;40.50;;
29776;SDS011;16677;52.224;7.484;2022-10-15T06:06:13;75.73;;;40.93;;
29776;SDS011;16677;52.224;7.484;2022-10-15T06:08:49;75.17;;;39.90;;
29776;SDS011;16677;52.224;7.484;2022-10-15T06:11:16;76.53;;;41.43;;
29776;SDS011;16677;52.224;7.484;2022-10-15T06:13:44;80.50;;;41.57;;
29776;SDS011;16677;52.224;7.484;2022-10-15T06:16:12;82.57;;;41.50;;
29776;SDS011;16677;52.224;7.484;2022-10-15T06:18:48;79.60;;;41.63;;
29776;SDS011;16677;52.224;7.484;2022-10-15T06:21:15;79.00;;;40.77;;
29776;SDS011;16677;52.224;7.484;2022-10-15T06:23:42;79.30;;;41.60;;
29776;SDS011;16677;52.224;7.484;2022-10-15T06:26:09;91.93;;;44.03;;
29776;SDS011;16677;52.224;7.484;2022-10-15T06:28:36;73.07;;;41.70;;
29776;SDS011;16677;52.224;7.484;2022-10-15T06:31:05;83.30;;;42.63;;
29776;SDS011;16677;52.224;7.484;2022-10-15T06:33:32;80.17;;;40.97;;
29776;SDS011;16677;52.224;7.484;2022-10-15T06:36:00;80.33;;;41.87;;
29776;SDS011;16677;52.224;7.484;2022-10-15T06:38:30;83.03;;;42.90;;
29776;SDS011;16677;52.224;7.484;2022-10-15T06:41:05;81.33;;;41.93;;
29776;SDS011;16677;52.224;7.484;2022-10-15T06:43:35;86.00;;;50.35;;
29776;SDS011;16677;52.224;7.484;2022-10-15T06:46:03;81.18;;;50.05;;
29776;SDS011;16677;52.224;7.484;2022-10-15T06:48:31;80.05;;;50.03;;
29776;SDS011;16677;52.224;7.484;2022-10-15T06:50:59;82.40;;;50.08;;
29776;SDS011;16677;52.224;7.484;2022-10-15T06:53:27;71.93;;;40.67;;
29776;SDS011;16677;52.224;7.484;2022-10-15T06:55:57;77.93;;;41.37;;
29776;SDS011;16677;52.224;7.484;2022-10-15T06:58:26;71.20;;;39.90;;
29776;SDS011;16677;52.224;7.484;2022-10-15T07:00:58;71.57;;;40.67;;
29776;SDS011;16677;52.224;7.484;2022-10-15T07:03:29;67.77;;;39.63;;
29776;SDS011;16677;52.224;7.484;2022-10-15T07:06:00;63.13;;;35.73;;
29776;SDS011;16677;52.224;7.484;2022-10-15T07:08:29;67.33;;;39.47;;
29776;SDS011;16677;52.224;7.484;2022-10-15T07:10:56;69.23;;;39.50;;
29776;SDS011;16677;52.224;7.484;2022-10-15T07:13:26;64.17;;;38.53;;
29776;SDS011;16677;52.224;7.484;2022-10-15T07:15:53;64.90;;;38.60;;
29776;SDS011;16677;52.224;7.484;2022-10-15T07:18:21;66.63;;;39.57;;
29776;SDS011;16677;52.224;7.484;2022-10-15T07:20:48;69.77;;;39.97;;
29776;SDS011;16677;52.224;7.484;2022-10-15T07:23:15;70.60;;;40.27;;
29776;SDS011;16677;52.224;7.484;2022-10-15T07:25:42;76.97;;;41.70;;
29776;SDS011;16677;52.224;7.484;2022-10-15T07:28:09;65.93;;;38.40;;
29776;SDS011;16677;52.224;7.484;2022-10-15T07:30:36;72.50;;;39.30;;
29776;SDS011;16677;52.224;7.484;2022-10-15T07:33:03;75.67;;;42.13;;
29776;SDS011;16677;52.224;7.484;2022-10-15T07:35:30;74.07;;;41.00;;
29776;SDS011;16677;52.224;7.484;2022-10-15T07:37:59;77.83;;;42.47;;
29776;SDS011;16677;52.224;7.484;2022-10-15T07:40:27;84.40;;;43.43;;
29776;SDS011;16677;52.224;7.484;2022-10-15T07:42:55;88.47;;;44.87;;
29776;SDS011;16677;52.224;7.484;2022-10-15T07:45:23;84.57;;;44.33;;
29776;SDS011;16677;52.224;7.484;2022-10-15T07:47:51;82.47;;;42.93;;
29776;SDS011;16677;52.224;7.484;2022-10-15T07:50:19;89.63;;;44.57;;
29776;SDS011;16677;52.224;7.484;2022-10-15T07:52:46;86.23;;;46.43;;
29776;SDS011;16677;52.224;7.484;2022-10-15T07:55:13;92.80;;;45.43;;
29776;SDS011;16677;52.224;7.484;2022-10-15T07:57:40;91.10;;;45.63;;
29776;SDS011;16677;52.224;7.484;2022-10-15T08:00:07;92.20;;;47.57;;
29776;SDS011;16677;52.224;7.484;2022-10-15T08:02:34;89.27;;;46.63;;
29776;SDS011;16677;52.224;7.484;2022-10-15T08:05:01;110.25;;;59.63;;
29776;SDS011;16677;52.224;7.484;2022-10-15T08:07:29;106.25;;;60.10;;
29776;SDS011;16677;52.224;7.484;2022-10-15T08:09:55;99.32;;;57.58;;
29776;SDS011;16677;52.224;7.484;2022-10-15T08:12:22;100.85;;;59.97;;
29776;SDS011;16677;52.224;7.484;2022-10-15T08:14:50;95.20;;;56.13;;
29776;SDS011;16677;52.224;7.484;2022-10-15T08:17:17;89.57;;;55.60;;
29776;SDS011;16677;52.224;7.484;2022-10-15T08:19:44;95.72;;;58.00;;
29776;SDS011;16677;52.224;7.484;2022-10-15T08:22:10;85.40;;;55.27;;
29776;SDS011;16677;52.224;7.484;2022-10-15T08:24:38;82.55;;;53.97;;
29776;SDS011;16677;52.224;7.484;2022-10-15T08:27:05;80.65;;;54.55;;
29776;SDS011;16677;52.224;7.484;2022-10-15T08:29:32;83.20;;;54.80;;
29776;SDS011;16677;52.224;7.484;2022-10-15T08:31:59;85.97;;;56.65;;
29776;SDS011;16677;52.224;7.484;2022-10-15T08:34:26;88.00;;;56.77;;
29776;SDS011;16677;52.224;7.484;2022-10-15T08:36:53;83.45;;;55.95;;
29776;SDS011;16677;52.224;7.484;2022-10-15T08:39:20;82.18;;;54.53;;
29776;SDS011;16677;52.224;7.484;2022-10-15T08:41:48;81.80;;;54.78;;
29776;SDS011;16677;52.224;7.484;2022-10-15T08:47:33;80.97;;;55.55;;
29776;SDS011;16677;52.224;7.484;2022-10-15T08:53:19;81.65;;;56.83;;
29776;SDS011;16677;52.224;7.484;2022-10-15T08:55:49;82.05;;;55.90;;
29776;SDS011;16677;52.224;7.484;2022-10-15T08:58:28;78.57;;;55.37;;
29776;SDS011;16677;52.224;7.484;2022-10-15T09:03:38;79.32;;;56.80;;
29776;SDS011;16677;52.224;7.484;2022-10-15T09:06:42;79.03;;;56.97;;
29776;SDS011;16677;52.224;7.484;2022-10-15T09:12:16;82.40;;;59.63;;
29776;SDS011;16677;52.224;7.484;2022-10-15T09:15:04;77.00;;;57.67;;
29776;SDS011;16677;52.224;7.484;2022-10-15T09:17:39;69.63;;;55.38;;
29776;SDS011;16677;52.224;7.484;2022-10-15T09:22:58;63.10;;;52.60;;
29776;SDS011;16677;52.224;7.484;2022-10-15T09:25:27;65.28;;;53.58;;
29776;SDS011;16677;52.224;7.484;2022-10-15T09:28:01;64.63;;;53.80;;
29776;SDS011;16677;52.224;7.484;2022-10-15T09:30:41;59.40;;;50.17;;
29776;SDS011;16677;52.224;7.484;2022-10-15T09:36:09;50.55;;;45.15;;
29776;SDS011;16677;52.224;7.484;2022-10-15T09:39:08;49.22;;;43.85;;
29776;SDS011;16677;52.224;7.484;2022-10-15T09:44:36;46.60;;;41.70;;
29776;SDS011;16677;52.224;7.484;2022-10-15T09:50:06;43.67;;;39.28;;
29776;SDS011;16677;52.224;7.484;2022-10-15T09:52:48;45.13;;;40.60;;
29776;SDS011;16677;52.224;7.484;2022-10-15T09:58:51;41.63;;;37.40;;
29776;SDS011;16677;52.224;7.484;2022-10-15T10:01:24;39.10;;;35.40;;
29776;SDS011;16677;52.224;7.484;2022-10-15T10:04:38;40.40;;;36.60;;
29776;SDS011;16677;52.224;7.484;2022-10-15T10:06:49;38.70;;;35.10;;
29776;SDS011;16677;52.224;7.484;2022-10-15T10:09:28;37.25;;;33.83;;
29776;SDS011;16677;52.224;7.484;2022-10-15T10:12:01;35.90;;;32.73;;
29776;SDS011;16677;52.224;7.484;2022-10-15T10:14:40;34.30;;;31.27;;
29776;SDS011;16677;52.224;7.484;2022-10-15T10:17:35;30.52;;;27.73;;
29776;SDS011;16677;52.224;7.484;2022-10-15T10:22:43;30.67;;;28.08;;
29776;SDS011;16677;52.224;7.484;2022-10-15T10:25:39;28.43;;;25.97;;
29776;SDS011;16677;52.224;7.484;2022-10-15T10:33:27;25.60;;;23.30;;
29776;SDS011;16677;52.224;7.484;2022-10-15T10:35:57;25.25;;;23.15;;
29776;SDS011;16677;52.224;7.484;2022-10-15T10:38:28;22.30;;;20.40;;
29776;SDS011;16677;52.224;7.484;2022-10-15T10:41:04;20.23;;;18.52;;
29776;SDS011;16677;52.224;7.484;2022-10-15T10:49:43;20.80;;;19.10;;
29776;SDS011;16677;52.224;7.484;2022-10-15T10:52:24;20.63;;;18.77;;
29776;SDS011;16677;52.224;7.484;2022-10-15T10:57:37;20.83;;;18.97;;
29776;SDS011;16677;52.224;7.484;2022-10-15T11:00:40;20.60;;;18.90;;
29776;SDS011;16677;52.224;7.484;2022-10-15T11:06:03;17.48;;;15.75;;
29776;SDS011;16677;52.224;7.484;2022-10-15T11:08:50;18.47;;;16.87;;
29776;SDS011;16677;52.224;7.484;2022-10-15T11:19:43;21.02;;;19.23;;
29776;SDS011;16677;52.224;7.484;2022-10-15T11:25:42;18.63;;;16.92;;
29776;SDS011;16677;52.224;7.484;2022-10-15T11:30:53;16.87;;;15.27;;
29776;SDS011;16677;52.224;7.484;2022-10-15T11:37:12;12.93;;;11.82;;
29776;SDS011;16677;52.224;7.484;2022-10-15T11:43:42;12.60;;;11.38;;
29776;SDS011;16677;52.224;7.484;2022-10-15T11:46:26;10.65;;;9.80;;
29776;SDS011;16677;52.224;7.484;2022-10-15T11:58:01;10.07;;;9.25;;
29776;SDS011;16677;52.224;7.484;2022-10-15T12:00:38;10.48;;;9.57;;
29776;SDS011;16677;52.224;7.484;2022-10-15T12:03:13;10.75;;;9.75;;
29776;SDS011;16677;52.224;7.484;2022-10-15T12:05:52;11.60;;;10.50;;
29776;SDS011;16677;52.224;7.484;2022-10-15T12:32:29;5.93;;;5.32;;
29776;SDS011;16677;52.224;7.484;2022-10-15T12:35:00;5.87;;;5.27;;
29776;SDS011;16677;52.224;7.484;2022-10-15T12:37:30;6.63;;;5.50;;
29776;SDS011;16677;52.224;7.484;2022-10-15T12:40:03;7.07;;;6.37;;
29776;SDS011;16677;52.224;7.484;2022-10-15T12:42:49;6.23;;;5.70;;
29776;SDS011;16677;52.224;7.484;2022-10-15T12:45:22;6.57;;;4.97;;
29776;SDS011;16677;52.224;7.484;2022-10-15T12:48:42;5.07;;;4.07;;
29776;SDS011;16677;52.224;7.484;2022-10-15T12:50:42;3.83;;;3.50;;
29776;SDS011;16677;52.224;7.484;2022-10-15T12:59:00;4.67;;;4.23;;
29776;SDS011;16677;52.224;7.484;2022-10-15T13:01:28;5.13;;;3.70;;
29776;SDS011;16677;52.224;7.484;2022-10-15T13:04:16;4.00;;;3.67;;
29776;SDS011;16677;52.224;7.484;2022-10-15T13:06:45;4.63;;;3.50;;
29776;SDS011;16677;52.224;7.484;2022-10-15T13:11:54;3.90;;;3.57;;
29776;SDS011;16677;52.224;7.484;2022-10-15T13:16:52;4.00;;;3.60;;
29776;SDS011;16677;52.224;7.484;2022-10-15T13:19:28;3.70;;;3.40;;
29776;SDS011;16677;52.224;7.484;2022-10-15T13:21:59;4.43;;;3.27;;
29776;SDS011;16677;52.224;7.484;2022-10-15T13:24:43;4.40;;;3.47;;
29776;SDS011;16677;52.224;7.484;2022-10-15T13:27:23;4.70;;;3.30;;
29776;SDS011;16677;52.224;7.484;2022-10-15T13:29:55;3.73;;;3.47;;
29776;SDS011;16677;52.224;7.484;2022-10-15T13:32:27;3.50;;;3.20;;
29776;SDS011;16677;52.224;7.484;2022-10-15T13:35:02;4.73;;;3.43;;
29776;SDS011;16677;52.224;7.484;2022-10-15T13:37:36;4.57;;;3.57;;
29776;SDS011;16677;52.224;7.484;2022-10-15T13:40:05;3.13;;;2.93;;
29776;SDS011;16677;52.224;7.484;2022-10-15T13:42:34;3.93;;;3.17;;
29776;SDS011;16677;52.224;7.484;2022-10-15T13:45:14;3.47;;;3.27;;
29776;SDS011;16677;52.224;7.484;2022-10-15T13:47:48;3.80;;;3.27;;
29776;SDS011;16677;52.224;7.484;2022-10-15T13:52:47;3.67;;;3.37;;
29776;SDS011;16677;52.224;7.484;2022-10-15T13:55:25;4.57;;;3.73;;
29776;SDS011;16677;52.224;7.484;2022-10-15T13:58:05;3.50;;;3.30;;
29776;SDS011;16677;52.224;7.484;2022-10-15T14:00:40;4.07;;;3.80;;
29776;SDS011;16677;52.224;7.484;2022-10-15T14:03:15;4.23;;;3.93;;
29776;SDS011;16677;52.224;7.484;2022-10-15T14:05:48;4.47;;;4.17;;
29776;SDS011;16677;52.224;7.484;2022-10-15T14:08:19;4.60;;;4.20;;
29776;SDS011;16677;52.224;7.484;2022-10-15T14:10:59;5.07;;;4.50;;
29776;SDS011;16677;52.224;7.484;2022-10-15T14:13:26;5.27;;;4.90;;
29776;SDS011;16677;52.224;7.484;2022-10-15T14:18:41;6.23;;;5.83;;
29776;SDS011;16677;52.224;7.484;2022-10-15T14:21:16;6.20;;;5.80;;
29776;SDS011;16677;52.224;7.484;2022-10-15T14:23:45;6.10;;;5.70;;
29776;SDS011;16677;52.224;7.484;2022-10-15T14:26:14;6.47;;;5.83;;
29776;SDS011;16677;52.224;7.484;2022-10-15T14:28:43;7.00;;;6.40;;
29776;SDS011;16677;52.224;7.484;2022-10-15T14:36:56;7.00;;;6.50;;
29776;SDS011;16677;52.224;7.484;2022-10-15T14:39:28;6.77;;;6.27;;
29776;SDS011;16677;52.224;7.484;2022-10-15T14:42:03;7.57;;;7.07;;
29776;SDS011;16677;52.224;7.484;2022-10-15T14:47:19;8.67;;;7.97;;
29776;SDS011;16677;52.224;7.484;2022-10-15T14:49:48;8.57;;;7.87;;
29776;SDS011;16677;52.224;7.484;2022-10-15T14:52:16;8.10;;;7.50;;
29776;SDS011;16677;52.224;7.484;2022-10-15T14:54:48;10.67;;;7.03;;
29776;SDS011;16677;52.224;7.484;2022-10-15T14:57:28;7.80;;;7.00;;
29776;SDS011;16677;52.224;7.484;2022-10-15T15:00:00;7.10;;;6.60;;
29776;SDS011;16677;52.224;7.484;2022-10-15T15:02:30;8.40;;;7.67;;
29776;SDS011;16677;52.224;7.484;2022-10-15T15:07:38;7.47;;;6.97;;
29776;SDS011;16677;52.224;7.484;2022-10-15T15:10:06;8.33;;;7.73;;
29776;SDS011;16677;52.224;7.484;2022-10-15T15:12:34;9.20;;;8.40;;
29776;SDS011;16677;52.224;7.484;2022-10-15T15:15:03;9.43;;;8.73;;
29776;SDS011;16677;52.224;7.484;2022-10-15T15:17:53;9.93;;;9.13;;
29776;SDS011;16677;52.224;7.484;2022-10-15T15:20:21;10.40;;;9.40;;
29776;SDS011;16677;52.224;7.484;2022-10-15T15:22:52;11.13;;;9.87;;
29776;SDS011;16677;52.224;7.484;2022-10-15T15:25:23;12.60;;;11.50;;
29776;SDS011;16677;52.224;7.484;2022-10-15T15:27:55;11.60;;;10.50;;
29776;SDS011;16677;52.224;7.484;2022-10-15T15:30:23;10.47;;;9.77;;
29776;SDS011;16677;52.224;7.484;2022-10-15T15:32:53;10.17;;;9.37;;
29776;SDS011;16677;52.224;7.484;2022-10-15T15:38:05;9.13;;;8.43;;
29776;SDS011;16677;52.224;7.484;2022-10-15T15:40:34;9.50;;;8.80;;
29776;SDS011;16677;52.224;7.484;2022-10-15T15:43:02;9.70;;;8.53;;
29776;SDS011;16677;52.224;7.484;2022-10-15T15:45:29;8.70;;;8.00;;
29776;SDS011;16677;52.224;7.484;2022-10-15T15:47:56;9.43;;;8.57;;
29776;SDS011;16677;52.224;7.484;2022-10-15T15:50:29;18.10;;;16.55;;
29776;SDS011;16677;52.224;7.484;2022-10-15T15:52:56;10.97;;;9.97;;
29776;SDS011;16677;52.224;7.484;2022-10-15T15:55:23;11.33;;;10.43;;
29776;SDS011;16677;52.224;7.484;2022-10-15T16:00:20;9.70;;;9.00;;
29776;SDS011;16677;52.224;7.484;2022-10-15T16:02:47;9.30;;;8.60;;
29776;SDS011;16677;52.224;7.484;2022-10-15T16:05:18;9.07;;;8.37;;
29776;SDS011;16677;52.224;7.484;2022-10-15T16:07:45;8.88;;;7.97;;
29776;SDS011;16677;52.224;7.484;2022-10-15T16:10:12;10.10;;;9.30;;
29776;SDS011;16677;52.224;7.484;2022-10-15T16:12:40;7.97;;;7.28;;
29776;SDS011;16677;52.224;7.484;2022-10-15T16:15:09;7.07;;;6.47;;
29776;SDS011;16677;52.224;7.484;2022-10-15T16:17:40;7.65;;;5.80;;
29776;SDS011;16677;52.224;7.484;2022-10-15T16:20:08;5.47;;;5.07;;
29776;SDS011;16677;52.224;7.484;2022-10-15T16:22:36;6.10;;;5.60;;
29776;SDS011;16677;52.224;7.484;2022-10-15T16:25:03;4.90;;;4.50;;
29776;SDS011;16677;52.224;7.484;2022-10-15T16:27:30;4.17;;;3.87;;
29776;SDS011;16677;52.224;7.484;2022-10-15T16:30:00;5.28;;;4.88;;
29776;SDS011;16677;52.224;7.484;2022-10-15T16:32:30;4.70;;;4.17;;
29776;SDS011;16677;52.224;7.484;2022-10-15T16:34:57;4.83;;;4.43;;
29776;SDS011;16677;52.224;7.484;2022-10-15T16:37:27;4.55;;;4.15;;
29776;SDS011;16677;52.224;7.484;2022-10-15T16:39:55;4.30;;;4.00;;
29776;SDS011;16677;52.224;7.484;2022-10-15T16:42:30;4.20;;;3.90;;
29776;SDS011;16677;52.224;7.484;2022-10-15T16:44:57;4.30;;;3.90;;
29776;SDS011;16677;52.224;7.484;2022-10-15T16:47:24;4.40;;;3.70;;
29776;SDS011;16677;52.224;7.484;2022-10-15T16:49:52;4.45;;;4.13;;
29776;SDS011;16677;52.224;7.484;2022-10-15T16:52:20;4.18;;;3.88;;
29776;SDS011;16677;52.224;7.484;2022-10-15T16:54:48;4.77;;;4.43;;
29776;SDS011;16677;52.224;7.484;2022-10-15T16:57:15;4.70;;;4.30;;
29776;SDS011;16677;52.224;7.484;2022-10-15T16:59:42;5.90;;;5.00;;
29776;SDS011;16677;52.224;7.484;2022-10-15T17:02:09;4.80;;;4.30;;
29776;SDS011;16677;52.224;7.484;2022-10-15T17:04:36;4.10;;;3.70;;
29776;SDS011;16677;52.224;7.484;2022-10-15T17:07:06;4.40;;;3.47;;
29776;SDS011;16677;52.224;7.484;2022-10-15T17:09:37;2.70;;;2.50;;
29776;SDS011;16677;52.224;7.484;2022-10-15T17:12:04;2.63;;;2.43;;
29776;SDS011;16677;52.224;7.484;2022-10-15T17:14:31;2.00;;;1.90;;
29776;SDS011;16677;52.224;7.484;2022-10-15T17:16:59;1.80;;;1.70;;
29776;SDS011;16677;52.224;7.484;2022-10-15T17:19:26;2.90;;;1.80;;
29776;SDS011;16677;52.224;7.484;2022-10-15T17:21:59;1.90;;;1.80;;
29776;SDS011;16677;52.224;7.484;2022-10-15T17:24:41;2.47;;;1.90;;
29776;SDS011;16677;52.224;7.484;2022-10-15T17:27:08;4.50;;;2.20;;
29776;SDS011;16677;52.224;7.484;2022-10-15T17:29:35;2.80;;;2.50;;
29776;SDS011;16677;52.224;7.484;2022-10-15T17:32:03;2.60;;;2.40;;
29776;SDS011;16677;52.224;7.484;2022-10-15T17:37:12;2.93;;;2.73;;